EFHKEDHL

Guest
Details From EFHK - Helsinki Vantaa
To EDHL - Lubeck Blankensee
Flight Number -
Tags Generated
Created
Modified
Stats Distance 607 nm / 1,124 km
Max Altitude 0 ft / 0 m
Waypoints 3
Social Downloads 1
Likes 0
Share VATSIM

Download

Looking for another format? Having issues loading an existing format? Contact us
Advertisement - Login to hide

Notes

Generated

Route

EFHK LYE EDHL

ID Type Via Altitude Latitude Longitude Leg Dist Tot Dist Heading (true) Name
O EFHK APT - 0 ft / 0 m 60.33028˚ 24.96450˚ - 0 nm - -
LYE NDB - 0 ft / 0 m 53.80083˚ 10.69586˚ 606 nm 606 nm 236° / 224° LUBECK BLANKENSEE NDB
O EDHL APT - 0 ft / 0 m 53.80205˚ 10.70189˚ 0 nm 606 nm 71° / 71° -

Altitude Profile

Advertisement - Login to hide

Weather


0- 5 10 15 20 25 30 35+ Temperature / ° C

Clouds and Precipitation
Forecast for 2018-05-21 18:00 UTC. Updated 2 hours ago

Ground ~20,000 ft ~40,000 ft Winds

EFHK

Details ICAO EFHK (HEL)
Name Helsinki Vantaa
Region Finland
Timezone Europe/Helsinki (UTC+3.0)
Stats Elevation 179 ft / 55 m (AMSL)
Location 60.320569° 24.952668°
Runways 3
Magnetic Variation 9.022° E

METAR

EFHK 211650Z 19012KT CAVOK 23/02 Q1026 NOSIG

Decode

TAF

TAF EFHK 211435Z 2115/2215 21012KT CAVOK BECMG 2117/2119 VRB02KT BECMG 2208/2210 12010KT

Decode

Departure Runways

ID Width Length Bearing (true) Bearing (mag) Surface Threshold Offset Overrun Length
04L 197 ft / 60 m 9,817 ft / 2,992 m 47.43° 38.41° Asphalt 800 ft / 244 m 0 ft / 0 m
04R 197 ft / 60 m 10,472 ft / 3,192 m 47.46° 38.44° Asphalt 262 ft / 80 m 0 ft / 0 m
15 197 ft / 60 m 9,497 ft / 2,895 m 153.08° 144.06° Asphalt 0 ft / 0 m 198 ft / 60 m
22L 197 ft / 60 m 10,472 ft / 3,192 m 227.50° 218.48° Asphalt 0 ft / 0 m 197 ft / 60 m
22R 197 ft / 60 m 9,817 ft / 2,992 m 227.46° 218.44° Asphalt 912 ft / 278 m 0 ft / 0 m
33 197 ft / 60 m 9,497 ft / 2,895 m 333.10° 324.08° Asphalt 0 ft / 0 m 197 ft / 60 m

EDHL

Details ICAO EDHL (LBC)
Name Lubeck Blankensee
Region Germany - Civil
Timezone Europe/Berlin (UTC+2.0)
Stats Elevation 53 ft / 16 m (AMSL)
Location 53.804963° 10.717059°
Runways 1
Magnetic Variation 3.083° E

METAR

EDHL 211650Z 10009KT 070V140 CAVOK 23/06 Q1018

Decode

TAF

Not found

Destination Runways

ID Width Length Bearing (true) Bearing (mag) Surface Threshold Offset Overrun Length
07 197 ft / 60 m 6,877 ft / 2,096 m 71.96° 68.88° Asphalt 984 ft / 300 m 0 ft / 0 m
25 197 ft / 60 m 6,877 ft / 2,096 m 251.98° 248.90° Asphalt 0 ft / 0 m 0 ft / 0 m

Approach Navaids

Runway Type Ident Frequency Range Bearing (true) Bearing (mag) Slope Elevation
07 Localiser ILUE 111.70 MHz 18 nm / 33 km 72.14° 69.06° - 53 ft / 16 m (AMSL)
07 Glidescope ILUE 111.70 MHz 10 nm / 19 km 71.97° 68.89° 3.00° 53 ft / 16 m (AMSL)
25 Localiser ILUW 111.70 MHz 18 nm / 33 km 251.79° 248.70° - 47 ft / 14 m (AMSL)
25 Glidescope ILUW 111.70 MHz 10 nm / 19 km 251.97° 248.89° 3.00° 47 ft / 14 m (AMSL)